createdAt,value
2024-05-09T00:01:25.166Z,8.52
2024-05-09T00:03:26.782Z,8.40
2024-05-09T00:05:28.453Z,9.05
2024-05-09T00:07:30.178Z,8.75
2024-05-09T00:09:31.765Z,8.70
2024-05-09T00:11:33.384Z,8.75
2024-05-09T00:13:35.000Z,8.38
2024-05-09T00:15:37.163Z,8.75
2024-05-09T00:17:39.228Z,9.15
2024-05-09T00:19:41.010Z,8.10
2024-05-09T00:21:45.604Z,8.40
2024-05-09T00:23:47.446Z,8.18
2024-05-09T00:25:49.029Z,8.38
2024-05-09T00:27:50.575Z,9.50
2024-05-09T00:29:52.189Z,8.13
2024-05-09T00:31:54.461Z,8.30
2024-05-09T00:33:56.385Z,9.70
2024-05-09T00:35:58.133Z,9.07
2024-05-09T00:38:00.120Z,8.80
2024-05-09T00:40:01.743Z,9.18
2024-05-09T00:42:03.714Z,8.85
2024-05-09T00:44:05.470Z,7.72
2024-05-09T00:46:09.961Z,8.00
2024-05-09T00:48:15.189Z,9.52
2024-05-09T00:50:25.876Z,9.02
2024-05-09T00:52:35.710Z,8.57
2024-05-09T00:54:37.311Z,8.43
2024-05-09T00:56:40.922Z,8.98
2024-05-09T00:58:43.350Z,8.45
2024-05-09T01:00:45.160Z,8.65
2024-05-09T01:02:47.632Z,8.57
2024-05-09T01:04:50.179Z,8.32
2024-05-09T01:06:51.876Z,9.82
2024-05-09T01:08:53.540Z,9.15
2024-05-09T01:10:55.442Z,8.57
2024-05-09T01:12:57.132Z,8.45
2024-05-09T01:14:58.731Z,9.25
2024-05-09T01:17:00.503Z,9.07
2024-05-09T01:19:04.265Z,10.60
2024-05-09T01:21:08.297Z,9.07
2024-05-09T01:23:10.547Z,9.52
2024-05-09T01:25:12.238Z,8.15
2024-05-09T01:27:13.778Z,9.25
2024-05-09T01:29:15.545Z,8.27
2024-05-09T01:31:17.223Z,9.38
2024-05-09T01:33:18.914Z,10.00
2024-05-09T01:35:23.526Z,8.85
2024-05-09T01:37:25.236Z,8.90
2024-05-09T01:39:26.816Z,9.27
2024-05-09T01:41:28.545Z,9.90
2024-05-09T01:43:30.506Z,9.45
2024-05-09T01:45:32.104Z,8.95
2024-05-09T01:47:33.796Z,9.38
2024-05-09T01:49:37.284Z,11.40
2024-05-09T01:51:38.995Z,8.95
2024-05-09T01:53:40.707Z,8.82
2024-05-09T01:55:43.280Z,8.82
2024-05-09T01:57:45.086Z,8.75
2024-05-09T01:59:46.614Z,8.80
2024-05-09T02:01:56.617Z,9.07
2024-05-09T02:03:59.554Z,8.35
2024-05-09T02:06:01.419Z,9.40
2024-05-09T02:08:03.432Z,9.35
2024-05-09T02:10:13.589Z,8.57
2024-05-09T02:12:18.279Z,9.40
2024-05-09T02:14:20.423Z,9.07
2024-05-09T02:16:21.963Z,9.70
2024-05-09T02:18:23.829Z,8.93
2024-05-09T02:20:33.391Z,8.52
2024-05-09T02:22:37.970Z,8.25
2024-05-09T02:24:39.527Z,9.65
2024-05-09T02:26:41.158Z,8.30
2024-05-09T02:28:42.834Z,8.80
2024-05-09T02:30:44.490Z,9.10
2024-05-09T02:32:46.315Z,8.63
2024-05-09T02:34:48.137Z,8.32
2024-05-09T02:36:49.907Z,8.77
2024-05-09T02:38:51.543Z,9.30
2024-05-09T02:40:53.131Z,8.10
2024-05-09T02:42:54.782Z,9.43
2024-05-09T02:44:56.472Z,9.35
2024-05-09T02:46:58.075Z,10.15
2024-05-09T02:48:59.745Z,8.43
2024-05-09T02:51:01.987Z,9.45
2024-05-09T02:53:03.806Z,8.65
2024-05-09T02:55:05.886Z,8.48
2024-05-09T02:57:07.872Z,8.52
2024-05-09T02:59:09.491Z,7.30
2024-05-09T03:01:11.213Z,8.95
2024-05-09T03:03:14.926Z,8.85
2024-05-09T03:05:17.400Z,7.72
2024-05-09T03:07:20.372Z,8.02
2024-05-09T03:09:23.779Z,9.00
2024-05-09T03:11:26.017Z,8.20
2024-05-09T03:13:27.650Z,7.63
2024-05-09T03:15:32.491Z,7.95
2024-05-09T03:17:34.508Z,8.60
2024-05-09T03:19:36.680Z,7.45
2024-05-09T03:21:40.099Z,9.70
2024-05-09T03:23:42.283Z,7.85
2024-05-09T03:25:43.908Z,8.32
2024-05-09T03:27:45.522Z,7.95
2024-05-09T03:29:47.091Z,7.82
2024-05-09T03:31:48.956Z,7.43
2024-05-09T03:33:50.777Z,7.32
2024-05-09T03:35:52.447Z,7.63
2024-05-09T03:37:53.976Z,7.88
2024-05-09T03:39:55.944Z,7.43
2024-05-09T03:41:57.604Z,7.88
2024-05-09T03:43:59.167Z,8.48
2024-05-09T03:46:00.923Z,7.07
2024-05-09T03:48:02.701Z,6.80
2024-05-09T03:50:05.834Z,7.15
2024-05-09T03:52:09.298Z,7.47
2024-05-09T03:54:10.836Z,7.65
2024-05-09T03:56:12.605Z,7.00
2024-05-09T03:58:14.549Z,7.90
2024-05-09T04:00:22.162Z,7.55
2024-05-09T04:02:28.385Z,7.25
2024-05-09T04:04:30.252Z,7.60
2024-05-09T04:06:32.319Z,6.90
2024-05-09T04:08:34.069Z,6.80
2024-05-09T04:10:35.922Z,6.65
2024-05-09T04:12:38.000Z,6.45
2024-05-09T04:14:39.783Z,7.65
2024-05-09T04:16:41.355Z,7.95
2024-05-09T04:18:43.100Z,6.38
2024-05-09T04:20:45.057Z,6.53
2024-05-09T04:22:46.744Z,7.30
2024-05-09T04:24:48.585Z,7.60
2024-05-09T04:26:50.155Z,6.72
2024-05-09T04:28:51.794Z,7.18
2024-05-09T04:30:53.352Z,7.25
2024-05-09T04:32:55.092Z,7.15
2024-05-09T04:34:56.745Z,7.65
2024-05-09T04:36:58.333Z,6.97
2024-05-09T04:38:59.953Z,7.28
2024-05-09T04:41:01.818Z,7.65
2024-05-09T04:43:07.098Z,6.97
2024-05-09T04:45:09.079Z,7.82
2024-05-09T04:47:11.247Z,7.93
2024-05-09T04:49:13.322Z,7.18
2024-05-09T04:51:15.048Z,7.60
2024-05-09T04:53:17.204Z,7.10
2024-05-09T04:55:19.239Z,7.55
2024-05-09T04:57:20.860Z,7.43
2024-05-09T04:59:22.571Z,7.88
2024-05-09T05:01:24.217Z,7.28
2024-05-09T05:03:25.960Z,8.35
2024-05-09T05:05:27.718Z,7.70
2024-05-09T05:07:29.352Z,7.45
2024-05-09T05:09:31.145Z,8.25
2024-05-09T05:11:32.838Z,8.00
2024-05-09T05:13:36.732Z,8.32
2024-05-09T05:15:39.497Z,8.05
2024-05-09T05:17:41.244Z,9.30
2024-05-09T05:19:43.263Z,7.93
2024-05-09T05:21:44.847Z,9.25
2024-05-09T05:23:46.509Z,9.20
2024-05-09T05:25:53.024Z,9.68
2024-05-09T05:27:54.923Z,9.73
2024-05-09T05:29:56.509Z,10.00
2024-05-09T05:31:58.459Z,9.55
2024-05-09T05:34:00.142Z,10.20
2024-05-09T05:36:01.802Z,11.40
2024-05-09T05:38:03.975Z,11.48
2024-05-09T05:40:09.401Z,12.05
2024-05-09T05:42:13.402Z,11.52
2024-05-09T05:44:15.923Z,11.38
2024-05-09T05:46:17.814Z,11.40
2024-05-09T05:48:19.463Z,11.20
2024-05-09T05:50:27.886Z,10.38
2024-05-09T05:52:36.721Z,9.48
2024-05-09T05:54:38.273Z,10.70
2024-05-09T05:56:39.878Z,9.98
2024-05-09T05:58:44.232Z,9.20
2024-05-09T06:00:46.007Z,8.93
2024-05-09T06:02:47.667Z,9.90
2024-05-09T06:04:49.377Z,10.27
2024-05-09T06:06:51.391Z,9.85
2024-05-09T06:08:53.186Z,9.45
2024-05-09T06:10:54.906Z,10.20
2024-05-09T06:12:56.499Z,9.98
2024-05-09T06:14:58.044Z,9.13
2024-05-09T06:16:59.667Z,10.52
2024-05-09T06:19:01.299Z,10.02
2024-05-09T06:21:03.081Z,9.63
2024-05-09T06:23:09.019Z,10.10
2024-05-09T06:25:11.165Z,9.68
2024-05-09T06:27:12.744Z,9.93
2024-05-09T06:29:14.417Z,8.50
2024-05-09T06:31:16.481Z,9.27
2024-05-09T06:33:18.429Z,9.32
2024-05-09T06:35:20.142Z,9.88
2024-05-09T06:37:21.729Z,9.65
2024-05-09T06:39:24.121Z,9.55
2024-05-09T06:41:25.963Z,9.57
2024-05-09T06:43:27.537Z,9.45
2024-05-09T06:45:29.059Z,9.02
2024-05-09T06:47:30.790Z,9.55
2024-05-09T06:49:33.028Z,9.20
2024-05-09T06:51:38.272Z,9.40
2024-05-09T06:53:40.613Z,9.00
2024-05-09T06:55:42.820Z,9.25
2024-05-09T06:57:44.423Z,9.23
2024-05-09T06:59:45.923Z,9.40
2024-05-09T07:01:47.630Z,8.68
2024-05-09T07:03:49.270Z,9.07
2024-05-09T07:05:51.022Z,8.50
2024-05-09T07:07:52.642Z,9.75
2024-05-09T07:09:54.294Z,9.23
2024-05-09T07:11:56.047Z,9.07
2024-05-09T07:13:57.694Z,8.35
2024-05-09T07:15:59.966Z,8.60
2024-05-09T07:18:01.818Z,8.98
2024-05-09T07:20:06.725Z,9.23
2024-05-09T07:22:08.480Z,8.77
2024-05-09T07:24:10.144Z,9.90
2024-05-09T07:26:11.741Z,8.60
2024-05-09T07:28:15.736Z,9.75
2024-05-09T07:30:23.840Z,9.00
2024-05-09T07:32:32.425Z,9.40
2024-05-09T07:34:34.280Z,9.30
2024-05-09T07:36:35.917Z,10.98
2024-05-09T07:38:37.592Z,10.15
2024-05-09T07:40:40.857Z,9.93
2024-05-09T07:42:42.814Z,9.43
2024-05-09T07:44:44.440Z,9.75
2024-05-09T07:47:48.464Z,9.80
2024-05-09T07:53:37.882Z,9.18
2024-05-09T07:55:38.183Z,8.93
2024-05-09T07:57:39.879Z,9.73
2024-05-09T07:59:41.515Z,8.68
2024-05-09T08:01:43.260Z,8.57
2024-05-09T08:03:45.436Z,9.50
2024-05-09T08:05:47.264Z,10.02
2024-05-09T08:07:48.906Z,8.85
2024-05-09T08:09:50.474Z,9.23
2024-05-09T08:11:55.205Z,8.88
2024-05-09T08:13:56.750Z,9.18
2024-05-09T08:15:58.345Z,8.73
2024-05-09T08:18:00.183Z,9.30
2024-05-09T08:20:03.672Z,8.77
2024-05-09T08:22:07.366Z,9.48
2024-05-09T08:24:10.450Z,8.95
2024-05-09T08:26:12.364Z,8.50
2024-05-09T08:28:15.247Z,9.50
2024-05-09T08:30:24.635Z,8.50
2024-05-09T08:32:32.425Z,8.75
2024-05-09T08:34:34.207Z,8.48
2024-05-09T08:36:35.902Z,8.90
2024-05-09T08:38:37.479Z,8.43
2024-05-09T08:40:39.322Z,8.60
2024-05-09T08:42:49.509Z,8.00
2024-05-09T08:44:52.101Z,8.07
2024-05-09T08:46:53.846Z,8.50
2024-05-09T08:48:57.343Z,8.07
2024-05-09T08:50:59.528Z,7.13
2024-05-09T08:53:01.183Z,7.47
2024-05-09T08:55:03.846Z,8.40
2024-05-09T08:57:07.015Z,7.40
2024-05-09T08:59:13.540Z,6.53
2024-05-09T09:01:16.328Z,7.60
2024-05-09T09:03:19.912Z,6.35
2024-05-09T09:05:25.859Z,6.88
2024-05-09T09:07:29.922Z,6.03
2024-05-09T09:09:32.900Z,6.20
2024-05-09T09:11:34.652Z,6.40
2024-05-09T09:13:36.817Z,6.75
2024-05-09T09:15:48.385Z,6.57
2024-05-09T09:18:00.720Z,6.20
2024-05-09T09:20:03.057Z,6.30
2024-05-09T09:22:05.292Z,6.65
2024-05-09T09:24:10.000Z,6.13
2024-05-09T09:26:15.654Z,6.05
2024-05-09T09:28:17.655Z,6.75
2024-05-09T09:30:31.518Z,6.20
2024-05-09T09:32:38.526Z,5.28
2024-05-09T09:34:41.579Z,5.55
2024-05-09T09:36:44.443Z,5.57
2024-05-09T09:38:47.430Z,6.38
2024-05-09T09:40:51.031Z,6.63
2024-05-09T09:42:57.763Z,6.00
2024-05-09T09:45:04.842Z,6.35
2024-05-09T09:47:08.596Z,6.22
2024-05-09T09:49:10.356Z,6.45
2024-05-09T09:51:13.820Z,5.90
2024-05-09T09:53:16.682Z,6.43
2024-05-09T09:55:18.788Z,6.55
2024-05-09T09:57:21.438Z,7.15
2024-05-09T09:59:23.184Z,6.18
2024-05-09T10:01:25.046Z,6.95
2024-05-09T10:03:27.273Z,7.30
2024-05-09T10:05:30.138Z,6.00
2024-05-09T10:07:33.438Z,6.38
2024-05-09T10:09:35.620Z,6.75
2024-05-09T10:11:42.006Z,6.45
2024-05-09T10:13:47.403Z,7.28
2024-05-09T10:15:53.760Z,6.63
2024-05-09T10:18:06.698Z,6.68
2024-05-09T10:20:14.906Z,6.38
2024-05-09T10:22:30.917Z,6.00
2024-05-09T10:24:53.203Z,6.43
2024-05-09T10:26:54.938Z,5.70
2024-05-09T10:28:58.700Z,6.38
2024-05-09T10:31:10.776Z,6.30
2024-05-09T10:33:12.544Z,6.57
2024-05-09T10:35:19.247Z,5.97
2024-05-09T10:37:22.092Z,6.75
2024-05-09T10:39:25.578Z,7.20
2024-05-09T10:41:27.191Z,6.47
2024-05-09T10:43:31.228Z,6.65
2024-05-09T10:45:35.038Z,6.80
2024-05-09T10:47:36.967Z,6.82
2024-05-09T10:49:39.342Z,6.05
2024-05-09T10:51:44.461Z,6.78
2024-05-09T10:53:47.818Z,5.75
2024-05-09T10:55:59.714Z,5.50
2024-05-09T10:58:01.323Z,6.13
2024-05-09T11:00:03.127Z,5.32
2024-05-09T11:02:07.996Z,5.70
2024-05-09T11:04:09.932Z,6.53
2024-05-09T11:06:11.937Z,5.57
2024-05-09T11:08:13.713Z,6.28
2024-05-09T11:10:21.003Z,5.50
2024-05-09T11:12:29.096Z,5.28
2024-05-09T11:14:30.714Z,5.00
2024-05-09T11:16:32.787Z,6.07
2024-05-09T11:18:38.093Z,5.80
2024-05-09T11:20:40.976Z,5.60
2024-05-09T11:22:42.748Z,5.28
2024-05-09T11:24:44.508Z,5.07
2024-05-09T11:26:46.136Z,4.95
2024-05-09T11:28:48.148Z,5.28
2024-05-09T11:30:50.870Z,6.20
2024-05-09T11:32:53.371Z,5.05
2024-05-09T11:34:55.013Z,5.18
2024-05-09T11:36:56.756Z,6.13
2024-05-09T11:38:58.349Z,5.53
2024-05-09T11:40:59.977Z,5.97
2024-05-09T11:43:01.781Z,6.00
2024-05-09T11:45:03.915Z,5.55
2024-05-09T11:47:05.918Z,5.75
2024-05-09T11:49:09.313Z,5.70
2024-05-09T11:51:11.123Z,6.45
2024-05-09T11:53:12.734Z,5.55
2024-05-09T11:55:14.703Z,5.63
2024-05-09T11:57:16.443Z,4.63
2024-05-09T11:59:18.044Z,5.20
2024-05-09T12:01:20.337Z,5.70
2024-05-09T12:03:22.891Z,5.40
2024-05-09T12:05:25.487Z,5.60
2024-05-09T12:07:27.172Z,5.32
2024-05-09T12:09:29.102Z,5.32
2024-05-09T12:11:30.902Z,4.43
2024-05-09T12:13:32.649Z,5.65
2024-05-09T12:15:38.306Z,5.28
2024-05-09T12:17:40.758Z,5.28
2024-05-09T12:19:42.803Z,4.55
2024-05-09T12:21:44.385Z,5.03
2024-05-09T12:23:46.397Z,4.75
2024-05-09T12:25:48.034Z,5.45
2024-05-09T12:27:49.714Z,4.38
2024-05-09T12:29:51.337Z,4.70
2024-05-09T12:31:53.029Z,3.53
2024-05-09T12:33:54.906Z,5.18
2024-05-09T12:35:56.642Z,5.40
2024-05-09T12:37:58.303Z,4.80
2024-05-09T12:39:59.900Z,5.25
2024-05-09T12:42:01.717Z,5.15
2024-05-09T12:44:03.289Z,5.03
2024-05-09T12:46:05.042Z,5.25
2024-05-09T12:48:11.754Z,4.93
2024-05-09T12:50:21.964Z,4.82
2024-05-09T12:52:26.917Z,4.45
2024-05-09T12:54:28.614Z,4.70
2024-05-09T12:56:30.213Z,4.40
2024-05-09T12:58:31.818Z,4.50
2024-05-09T13:00:34.455Z,4.22
2024-05-09T13:02:36.450Z,4.75
2024-05-09T13:04:38.388Z,4.25
2024-05-09T13:06:40.175Z,4.90
2024-05-09T13:08:41.895Z,4.75
2024-05-09T13:10:43.647Z,4.57
2024-05-09T13:12:45.289Z,4.97
2024-05-09T13:14:47.061Z,4.20
2024-05-09T13:16:48.748Z,4.40
2024-05-09T13:18:50.689Z,4.60
2024-05-09T13:20:52.484Z,4.72
2024-05-09T13:22:54.269Z,5.15
2024-05-09T13:24:55.856Z,4.85
2024-05-09T13:26:57.530Z,4.88
2024-05-09T13:28:59.067Z,4.82
2024-05-09T13:31:00.717Z,5.00
2024-05-09T13:33:02.495Z,4.72
2024-05-09T13:35:04.644Z,4.80
2024-05-09T13:37:06.420Z,4.57
2024-05-09T13:39:08.134Z,3.92
2024-05-09T13:41:11.520Z,4.47
2024-05-09T13:43:14.035Z,4.25
2024-05-09T13:45:15.677Z,3.92
2024-05-09T13:47:17.558Z,3.92
2024-05-09T13:49:19.349Z,4.20
2024-05-09T13:51:20.992Z,3.90
2024-05-09T13:53:22.613Z,4.60
2024-05-09T13:55:24.300Z,4.47
2024-05-09T13:57:26.633Z,4.65
2024-05-09T13:59:28.284Z,4.18
2024-05-09T14:01:33.368Z,3.75
2024-05-09T14:03:35.136Z,4.18
2024-05-09T14:05:36.959Z,4.10
2024-05-09T14:07:38.651Z,4.30
2024-05-09T14:09:40.233Z,4.00
2024-05-09T14:11:42.101Z,4.18
2024-05-09T14:13:43.850Z,4.32
2024-05-09T14:15:46.365Z,3.42
2024-05-09T14:17:48.343Z,4.45
2024-05-09T14:19:49.986Z,3.58
2024-05-09T14:21:51.556Z,3.95
2024-05-09T14:23:54.338Z,3.83
2024-05-09T14:25:56.458Z,3.47
2024-05-09T14:27:58.513Z,4.53
2024-05-09T14:30:00.205Z,4.32
2024-05-09T14:32:02.941Z,4.60
2024-05-09T14:34:04.737Z,4.05
2024-05-09T14:36:06.777Z,4.70
2024-05-09T14:38:09.838Z,3.83
2024-05-09T14:40:25.970Z,3.85
2024-05-09T14:42:33.104Z,3.63
2024-05-09T14:44:34.677Z,3.90
2024-05-09T14:46:36.323Z,3.60
2024-05-09T14:48:38.120Z,3.75
2024-05-09T14:50:40.900Z,3.80
2024-05-09T14:52:42.783Z,3.35
2024-05-09T14:54:44.439Z,3.53
2024-05-09T14:56:46.143Z,4.15
2024-05-09T14:58:47.824Z,3.95
2024-05-09T15:00:51.269Z,3.63
2024-05-09T15:02:54.866Z,3.53
2024-05-09T15:04:56.476Z,3.55
2024-05-09T15:06:59.812Z,3.38
2024-05-09T15:09:01.897Z,3.33
2024-05-09T15:11:03.702Z,3.53
2024-05-09T15:13:07.800Z,3.40
2024-05-09T15:15:11.034Z,3.33
2024-05-09T15:17:13.038Z,3.95
2024-05-09T15:19:14.846Z,2.78
2024-05-09T15:21:16.546Z,3.30
2024-05-09T15:23:18.244Z,3.67
2024-05-09T15:25:19.899Z,3.45
2024-05-09T15:27:21.898Z,3.42
2024-05-09T15:29:23.433Z,3.35
2024-05-09T15:31:25.167Z,3.92
2024-05-09T15:33:27.967Z,3.22
2024-05-09T15:35:29.605Z,3.17
2024-05-09T15:37:31.718Z,3.28
2024-05-09T15:39:33.399Z,2.78
2024-05-09T15:41:35.100Z,2.92
2024-05-09T15:43:36.690Z,3.17
2024-05-09T15:45:38.591Z,2.60
2024-05-09T15:47:40.343Z,3.40
2024-05-09T15:49:42.350Z,3.80
2024-05-09T15:51:44.093Z,2.75
2024-05-09T15:53:45.708Z,3.17
2024-05-09T15:55:47.243Z,3.13
2024-05-09T15:57:48.875Z,3.78
2024-05-09T15:59:50.949Z,3.70
2024-05-09T16:01:52.560Z,3.13
2024-05-09T16:03:54.614Z,2.95
2024-05-09T16:05:57.643Z,3.30
2024-05-09T16:07:59.573Z,3.47
2024-05-09T16:10:01.359Z,3.28
2024-05-09T16:12:03.090Z,3.28
2024-05-09T16:14:04.988Z,2.88
2024-05-09T16:16:06.813Z,2.83
2024-05-09T16:18:08.723Z,3.15
2024-05-09T16:20:14.998Z,2.75
2024-05-09T16:22:19.988Z,2.80
2024-05-09T16:24:21.672Z,3.15
2024-05-09T16:26:23.308Z,3.08
2024-05-09T16:28:26.936Z,4.20
2024-05-09T16:30:34.715Z,4.20
2024-05-09T16:32:40.792Z,3.90
2024-05-09T16:34:42.498Z,3.60
2024-05-09T16:36:44.476Z,3.20
2024-05-09T16:38:46.052Z,3.38
2024-05-09T16:40:47.977Z,3.15
2024-05-09T16:42:49.678Z,2.90
2024-05-09T16:44:51.284Z,2.92
2024-05-09T16:46:53.169Z,3.30
2024-05-09T16:48:55.131Z,2.92
2024-05-09T16:50:56.873Z,3.42
2024-05-09T16:52:58.864Z,7.32
2024-05-09T16:55:00.585Z,3.85
2024-05-09T16:57:02.735Z,5.85
2024-05-09T16:59:04.398Z,4.90
2024-05-09T17:01:06.021Z,8.77
2024-05-09T17:03:09.651Z,8.70
2024-05-09T17:05:11.790Z,6.20
2024-05-09T17:07:13.691Z,7.15
2024-05-09T17:09:18.019Z,5.22
2024-05-09T17:11:21.074Z,16.42
2024-05-09T17:13:23.012Z,5.07
2024-05-09T17:15:24.775Z,10.20
2024-05-09T17:17:26.673Z,4.95
2024-05-09T17:19:29.253Z,8.75
2024-05-09T17:21:30.832Z,7.05
2024-05-09T17:23:34.689Z,18.08
2024-05-09T17:25:36.533Z,4.28
2024-05-09T17:27:38.176Z,4.18
2024-05-09T17:29:39.932Z,4.03
2024-05-09T17:31:41.509Z,4.00
2024-05-09T17:33:43.303Z,4.45
2024-05-09T17:35:46.230Z,4.47
2024-05-09T17:37:47.894Z,4.05
2024-05-09T17:39:49.504Z,4.60
2024-05-09T17:41:51.160Z,3.75
2024-05-09T17:43:52.725Z,4.10
2024-05-09T17:45:56.244Z,4.25
2024-05-09T17:47:58.349Z,4.22
2024-05-09T17:50:00.394Z,4.05
2024-05-09T17:52:02.021Z,4.35
2024-05-09T17:54:03.733Z,4.20
2024-05-09T17:56:08.701Z,4.45
2024-05-09T17:58:12.683Z,3.88
2024-05-09T18:00:17.485Z,4.03
2024-05-09T18:02:23.110Z,4.28
2024-05-09T18:04:24.924Z,4.32
2024-05-09T18:06:26.667Z,4.28
2024-05-09T18:08:28.209Z,4.03
2024-05-09T18:10:35.860Z,4.13
2024-05-09T18:12:40.438Z,3.88
2024-05-09T18:14:42.089Z,4.30
2024-05-09T18:16:43.662Z,4.32
2024-05-09T18:18:45.550Z,4.07
2024-05-09T18:20:47.632Z,4.10
2024-05-09T18:22:49.187Z,3.92
2024-05-09T18:24:50.805Z,3.63
2024-05-09T18:26:52.432Z,4.45
2024-05-09T18:28:54.063Z,4.15
2024-05-09T18:30:55.779Z,3.95
2024-05-09T18:32:57.572Z,5.05
2024-05-09T18:34:59.333Z,3.90
2024-05-09T18:37:02.988Z,4.28
2024-05-09T18:39:06.695Z,3.63
2024-05-09T18:41:08.416Z,3.85
2024-05-09T18:43:10.170Z,4.18
2024-05-09T18:45:12.043Z,3.53
2024-05-09T18:47:15.995Z,4.07
2024-05-09T18:49:18.732Z,3.58
2024-05-09T18:51:21.069Z,4.80
2024-05-09T18:53:22.660Z,4.07
2024-05-09T18:55:24.198Z,4.75
2024-05-09T18:57:26.065Z,4.30
2024-05-09T18:59:27.568Z,3.47
2024-05-09T19:01:29.328Z,3.80
2024-05-09T19:03:31.246Z,3.70
2024-05-09T19:05:33.414Z,3.92
2024-05-09T19:07:35.214Z,4.05
2024-05-09T19:09:36.868Z,4.22
2024-05-09T19:11:40.175Z,3.70
2024-05-09T19:13:41.838Z,3.80
2024-05-09T19:15:44.156Z,3.67
2024-05-09T19:17:48.290Z,3.80
2024-05-09T19:19:52.307Z,3.85
2024-05-09T19:21:54.119Z,4.05
2024-05-09T19:23:55.867Z,3.70
2024-05-09T19:25:57.889Z,3.53
2024-05-09T19:27:59.935Z,3.70
2024-05-09T19:30:01.580Z,3.38
2024-05-09T19:32:03.371Z,3.45
2024-05-09T19:34:05.106Z,3.25
2024-05-09T19:36:07.133Z,3.65
2024-05-09T19:38:08.921Z,3.30
2024-05-09T19:40:18.120Z,3.35
2024-05-09T19:42:27.601Z,3.40
2024-05-09T19:44:29.206Z,3.72
2024-05-09T19:46:30.828Z,3.47
2024-05-09T19:48:32.729Z,3.70
2024-05-09T19:50:41.173Z,3.58
2024-05-09T19:52:45.602Z,4.10
2024-05-09T19:54:49.934Z,3.60
2024-05-09T19:56:51.640Z,3.42
2024-05-09T19:58:53.357Z,3.30
2024-05-09T20:00:55.162Z,4.00
2024-05-09T20:02:56.955Z,3.78
2024-05-09T20:04:58.745Z,3.95
2024-05-09T20:07:00.390Z,3.80
2024-05-09T20:09:02.081Z,4.72
2024-05-09T20:11:03.719Z,4.05
2024-05-09T20:13:07.201Z,3.75
2024-05-09T20:15:09.419Z,4.13
2024-05-09T20:17:11.035Z,3.58
2024-05-09T20:19:12.865Z,4.63
2024-05-09T20:21:14.564Z,4.22
2024-05-09T20:23:16.635Z,3.97
2024-05-09T20:25:18.282Z,4.93
2024-05-09T20:27:19.873Z,4.63
2024-05-09T20:29:21.407Z,4.22
2024-05-09T20:31:23.107Z,4.53
2024-05-09T20:33:24.784Z,4.65
2024-05-09T20:35:26.765Z,4.25
2024-05-09T20:37:28.427Z,4.68
2024-05-09T20:39:29.993Z,4.63
2024-05-09T20:41:33.606Z,4.68
2024-05-09T20:43:35.235Z,5.22
2024-05-09T20:45:37.012Z,4.78
2024-05-09T20:47:38.758Z,5.15
2024-05-09T20:49:40.538Z,5.63
2024-05-09T20:51:42.274Z,5.25
2024-05-09T20:53:43.886Z,4.75
2024-05-09T20:55:45.875Z,5.20
2024-05-09T20:57:47.542Z,6.03
2024-05-09T20:59:49.163Z,4.95
2024-05-09T21:01:50.752Z,5.97
2024-05-09T21:03:52.594Z,5.10
2024-05-09T21:05:54.316Z,4.90
2024-05-09T21:07:56.491Z,5.00
2024-05-09T21:09:58.038Z,5.47
2024-05-09T21:11:59.610Z,5.05
2024-05-09T21:14:01.219Z,5.30
2024-05-09T21:16:02.909Z,5.47
2024-05-09T21:18:05.234Z,4.90
2024-05-09T21:20:11.696Z,6.45
2024-05-09T21:22:18.806Z,5.32
2024-05-09T21:24:20.517Z,4.90
2024-05-09T21:26:23.886Z,5.60
2024-05-09T21:28:25.709Z,5.30
2024-05-09T21:30:36.897Z,5.80
2024-05-09T21:32:42.674Z,5.53
2024-05-09T21:34:44.377Z,5.63
2024-05-09T21:36:46.088Z,5.82
2024-05-09T21:38:47.754Z,5.25
2024-05-09T21:40:49.349Z,5.28
2024-05-09T21:42:50.953Z,5.53
2024-05-09T21:44:52.610Z,5.43
2024-05-09T21:46:54.374Z,5.40
2024-05-09T21:48:56.011Z,4.97
2024-05-09T21:50:57.733Z,6.22
2024-05-09T21:52:59.337Z,5.63
2024-05-09T21:55:01.013Z,5.63
2024-05-09T21:57:03.744Z,6.00
2024-05-09T21:59:05.440Z,5.50
2024-05-09T22:01:07.310Z,5.57
2024-05-09T22:03:10.703Z,5.88
2024-05-09T22:05:13.844Z,5.85
2024-05-09T22:07:15.815Z,4.78
2024-05-09T22:09:17.427Z,5.82
2024-05-09T22:11:19.042Z,5.88
2024-05-09T22:13:20.781Z,5.82
2024-05-09T22:15:22.361Z,5.68
2024-05-09T22:17:24.134Z,6.45
2024-05-09T22:19:25.944Z,5.72
2024-05-09T22:21:27.541Z,5.80
2024-05-09T22:23:29.144Z,5.50
2024-05-09T22:25:31.722Z,5.20
2024-05-09T22:27:34.043Z,5.93
2024-05-09T22:29:35.608Z,5.60
2024-05-09T22:31:37.193Z,5.55
2024-05-09T22:33:38.921Z,5.65
2024-05-09T22:35:42.097Z,5.40
2024-05-09T22:37:43.691Z,5.50
2024-05-09T22:39:45.259Z,5.97
2024-05-09T22:41:46.887Z,5.97
2024-05-09T22:43:48.434Z,5.65
2024-05-09T22:45:50.293Z,5.55
2024-05-09T22:47:52.215Z,5.75
2024-05-09T22:49:53.942Z,5.88
2024-05-09T22:51:55.554Z,5.43
2024-05-09T22:53:57.093Z,5.15
2024-05-09T22:55:58.650Z,5.35
2024-05-09T22:58:00.285Z,5.57
2024-05-09T23:00:01.938Z,4.85
2024-05-09T23:02:03.914Z,5.05
2024-05-09T23:04:05.836Z,5.70
2024-05-09T23:06:07.868Z,4.90
2024-05-09T23:08:10.443Z,5.40
2024-05-09T23:10:17.300Z,5.57
2024-05-09T23:12:26.237Z,5.57
2024-05-09T23:14:27.933Z,5.50
2024-05-09T23:16:29.680Z,5.93
2024-05-09T23:18:31.420Z,5.88
2024-05-09T23:20:37.983Z,5.88
2024-05-09T23:22:41.452Z,6.03
2024-05-09T23:24:43.151Z,6.20
2024-05-09T23:26:44.786Z,6.07
2024-05-09T23:28:46.878Z,6.47
2024-05-09T23:30:48.923Z,5.78
2024-05-09T23:32:50.983Z,5.57
2024-05-09T23:34:52.700Z,5.57
2024-05-09T23:36:54.479Z,5.05
2024-05-09T23:38:56.316Z,5.45
2024-05-09T23:40:57.997Z,5.63
2024-05-09T23:42:59.683Z,5.13
2024-05-09T23:45:01.318Z,5.68
2024-05-09T23:47:03.315Z,5.25
2024-05-09T23:49:05.791Z,5.57
2024-05-09T23:51:07.540Z,5.60
2024-05-09T23:53:10.170Z,6.15
2024-05-09T23:55:12.638Z,5.88
2024-05-09T23:57:14.332Z,5.32
2024-05-09T23:59:15.956Z,5.55
